Time;durP1;ratioP1;P1;durP2;ratioP2;P2;SDS_P1;SDS_P2;PMS_P1;PMS_P2;Temp;Humidity;BMP_temperature;BMP_pressure;BME280_temperature;BME280_humidity;BME280_pressure;Samples;Min_cycle;Max_cycle;Signal;HPM_P1;HPM_P2
2022/04/03 00:01:58;;;;;;;9.15;1.77;;;;;;;;;;5093695;28;20073;-61
2022/04/03 00:04:24;;;;;;;5.03;1.60;;;3.60;99.90;;;;;;5093962;28;20040;-61
2022/04/03 00:06:50;;;;;;;2.72;1.67;;;3.50;99.90;;;;;;5093895;28;20753;-61
2022/04/03 00:09:16;;;;;;;4.47;1.60;;;;;;;;;;5093107;28;20087;-62
2022/04/03 00:11:42;;;;;;;5.35;1.30;;;3.50;99.90;;;;;;5093778;28;20044;-61
2022/04/03 00:14:08;;;;;;;4.93;1.50;;;3.50;99.90;;;;;;5093724;28;20528;-61
2022/04/03 00:16:36;;;;;;;3.28;1.65;;;;;;;;;;5093734;28;20044;-61
2022/04/03 00:19:02;;;;;;;4.65;1.48;;;3.00;99.90;;;;;;5093723;28;20047;-61
2022/04/03 00:21:28;;;;;;;4.97;1.60;;;3.30;99.90;;;;;;5093669;28;20157;-61
2022/04/03 00:23:54;;;;;;;2.38;1.48;;;3.20;99.90;;;;;;5093605;28;20138;-61
2022/04/03 00:26:20;;;;;;;2.50;1.50;;;;;;;;;;5093580;28;20048;-61
2022/04/03 00:28:46;;;;;;;2.97;1.60;;;3.20;99.90;;;;;;5093495;28;20490;-61
2022/04/03 00:31:12;;;;;;;2.78;1.50;;;3.20;99.90;;;;;;5092240;28;20079;-61
2022/04/03 00:33:38;;;;;;;;;;;3.20;99.90;;;;;;5093794;28;20128;-62
2022/04/03 00:36:04;;;;;;;5.85;1.67;;;3.10;99.90;;;;;;5093481;28;19920;-61
2022/04/03 00:38:30;;;;;;;4.63;1.80;;;;;;;;;;5093380;28;20414;-61
2022/04/03 00:40:57;;;;;;;6.72;1.73;;;3.30;99.90;;;;;;5091623;28;20067;-62
2022/04/03 00:43:23;;;;;;;4.22;1.45;;;2.60;99.90;;;;;;5092217;28;20056;-61
2022/04/03 00:45:49;;;;;;;3.20;1.50;;;;;;;;;;5092919;28;20040;-61
2022/04/03 00:48:15;;;;;;;2.00;1.52;;;2.60;99.90;;;;;;5093168;28;20282;-61
2022/04/03 00:50:41;;;;;;;2.65;1.55;;;;;;;;;;5093116;28;20052;-61
2022/04/03 00:53:07;;;;;;;3.42;1.60;;;;;;;;;;5092764;28;20515;-62
2022/04/03 00:55:33;;;;;;;5.07;1.58;;;;;;;;;;5092702;28;20488;-61
2022/04/03 00:58:00;;;;;;;3.60;1.75;;;2.50;99.90;;;;;;5093009;28;20051;-61
2022/04/03 01:00:27;;;;;;;4.60;1.67;;;;;;;;;;5092980;28;20087;-62
2022/04/03 01:02:52;;;;;;;4.00;1.65;;;2.50;99.90;;;;;;5092870;28;20101;-61
2022/04/03 01:05:18;;;;;;;4.60;1.45;;;2.30;99.90;;;;;;5092967;28;20044;-61
2022/04/03 01:07:44;;;;;;;4.30;1.50;;;2.00;99.90;;;;;;5092860;28;20389;-61
2022/04/03 01:10:10;;;;;;;2.03;1.50;;;;;;;;;;5092836;28;20044;-61
2022/04/03 01:12:45;;;;;;;4.03;1.70;;;;;;;;;;5092457;28;20521;-62
2022/04/03 01:15:15;;;;;;;1.88;1.50;;;;;;;;;;5092714;28;20464;-61
2022/04/03 01:17:41;;;;;;;1.90;1.73;;;;;;;;;;5092772;28;20075;-61
2022/04/03 01:20:07;;;;;;;;;;;1.90;99.90;;;;;;5091847;28;20373;-61
2022/04/03 01:22:33;;;;;;;1.90;1.70;;;;;;;;;;5091351;28;20438;-61
2022/04/03 01:24:59;;;;;;;2.55;1.30;;;1.60;99.90;;;;;;5092672;28;20052;-61
2022/04/03 01:27:25;;;;;;;4.57;1.67;;;1.80;99.90;;;;;;5092718;28;20137;-61
2022/04/03 01:29:52;;;;;;;3.92;2.10;;;;;;;;;;5092590;28;20106;-61
2022/04/03 01:32:19;;;;;;;1.60;1.40;;;2.10;99.90;;;;;;5092560;28;20087;-61
2022/04/03 01:34:45;;;;;;;1.42;1.30;;;1.60;99.90;;;;;;5092446;28;20119;-63
2022/04/03 01:37:11;;;;;;;4.30;1.80;;;;;;;;;;5092678;28;20064;-64
2022/04/03 01:39:37;;;;;;;3.92;1.67;;;;;;;;;;5092558;28;20507;-62
2022/04/03 01:42:04;;;;;;;2.17;1.50;;;;;;;;;;5092038;28;20052;-61
2022/04/03 01:44:30;;;;;;;2.85;1.70;;;1.80;99.90;;;;;;5092499;28;20040;-61
2022/04/03 01:46:56;;;;;;;3.92;1.85;;;2.00;99.90;;;;;;5092496;28;20050;-61
2022/04/03 01:49:22;;;;;;;4.32;2.50;;;;;;;;;;5092453;28;20040;-62
2022/04/03 01:51:48;;;;;;;4.78;1.75;;;2.00;99.90;;;;;;5092398;28;20130;-62
2022/04/03 01:54:14;;;;;;;4.75;1.95;;;2.00;99.90;;;;;;5092380;28;20132;-61
2022/04/03 01:56:40;;;;;;;6.22;1.90;;;;;;;;;;5092424;28;20066;-61
2022/04/03 01:59:06;;;;;;;;;;;2.00;99.90;;;;;;5092489;28;20518;-61
2022/04/03 02:01:33;;;;;;;3.40;2.15;;;1.90;99.90;;;;;;5092296;28;19963;-62
2022/04/03 02:04:00;;;;;;;6.95;2.50;;;1.90;99.90;;;;;;5092321;28;20043;-62
2022/04/03 02:06:26;;;;;;;3.47;2.25;;;2.00;99.90;;;;;;5092279;28;20071;-61
2022/04/03 02:08:53;;;;;;;;;;;;;;;;;;5092745;28;20070;-62
2022/04/03 02:11:19;;;;;;;3.22;2.00;;;1.80;99.90;;;;;;5092298;28;20395;-61
2022/04/03 02:13:45;;;;;;;5.18;2.33;;;;;;;;;;5092077;28;20044;-61
2022/04/03 02:16:11;;;;;;;3.92;2.55;;;2.30;99.90;;;;;;5090949;28;20056;-61
2022/04/03 02:18:37;;;;;;;2.95;1.80;;;;;;;;;;5092242;28;20181;-61
2022/04/03 02:21:03;;;;;;;2.10;1.90;;;2.20;99.90;;;;;;5092203;28;20091;-62
2022/04/03 02:23:29;;;;;;;2.63;2.00;;;;;;;;;;5092126;28;20040;-61
2022/04/03 02:25:55;;;;;;;2.67;1.90;;;2.00;99.90;;;;;;5092124;28;20524;-61
2022/04/03 02:28:21;;;;;;;6.22;1.90;;;2.40;99.90;;;;;;5092117;28;20119;-61
2022/04/03 02:30:47;;;;;;;2.28;1.80;;;1.90;99.90;;;;;;5092068;28;20080;-61
2022/04/03 02:33:13;;;;;;;;;;;;;;;;;;5093795;28;20040;-61
2022/04/03 02:35:39;;;;;;;3.83;1.98;;;;;;;;;;5095590;28;20418;-61
2022/04/03 02:38:05;;;;;;;2.20;1.83;;;;;;;;;;5095918;28;20106;-61
2022/04/03 02:40:31;;;;;;;2.95;2.20;;;2.20;99.90;;;;;;5095120;28;20409;-61
2022/04/03 02:42:57;;;;;;;5.78;2.50;;;;;;;;;;5095499;28;20056;-64
2022/04/03 02:45:24;;;;;;;2.88;2.08;;;;;;;;;;5095516;28;20127;-61
2022/04/03 02:47:52;;;;;;;2.78;1.90;;;2.30;99.90;;;;;;5095473;28;20093;-61
2022/04/03 02:50:20;;;;;;;3.10;2.00;;;1.90;99.90;;;;;;5095417;28;20221;-62
2022/04/03 02:52:49;;;;;;;5.90;2.20;;;;;;;;;;5095319;28;20052;-60
2022/04/03 02:55:16;;;;;;;3.13;2.00;;;1.80;99.90;;;;;;5095174;28;20040;-61
2022/04/03 02:57:43;;;;;;;6.13;2.90;;;;;;;;;;5095168;28;20048;-64
2022/04/03 03:00:14;;;;;;;4.68;2.13;;;1.60;99.90;;;;;;5093924;28;20040;-61
2022/04/03 03:02:40;;;;;;;3.10;2.20;;;;;;;;;;5095274;28;20047;-61
2022/04/03 03:05:07;;;;;;;3.47;2.33;;;1.50;99.90;;;;;;5095066;28;20042;-61
2022/04/03 03:07:37;;;;;;;4.18;2.30;;;1.40;99.90;;;;;;5095313;28;20063;-63
2022/04/03 03:10:04;;;;;;;4.13;2.10;;;1.40;99.90;;;;;;5095033;28;20052;-63
2022/04/03 03:12:31;;;;;;;3.78;2.50;;;;;;;;;;5095008;28;20051;-61
2022/04/03 03:14:56;;;;;;;;;;;1.30;99.90;;;;;;5095266;28;20495;-61
2022/04/03 03:17:23;;;;;;;4.35;2.25;;;;;;;;;;5094812;28;20022;-61
2022/04/03 03:19:48;;;;;;;6.15;2.90;;;1.10;99.90;;;;;;5093324;28;20506;-62
2022/04/03 03:22:14;;;;;;;4.60;2.63;;;1.00;99.90;;;;;;5093859;28;20045;-61
2022/04/03 03:24:41;;;;;;;2.80;2.42;;;;;;;;;;5094827;28;20090;-61
2022/04/03 03:27:06;;;;;;;4.93;2.60;;;1.30;99.90;;;;;;5094662;28;20165;-61
2022/04/03 03:29:32;;;;;;;3.78;2.55;;;;;;;;;;5094604;28;20127;-61
2022/04/03 03:31:58;;;;;;;3.60;2.45;;;;;;;;;;5094687;28;20059;-62
2022/04/03 03:34:24;;;;;;;6.68;2.60;;;1.20;99.90;;;;;;5094478;28;20048;-61
2022/04/03 03:36:50;;;;;;;3.53;2.40;;;1.40;99.90;;;;;;5093318;28;20274;-61
2022/04/03 03:39:16;;;;;;;6.80;2.70;;;;;;;;;;5094162;28;20285;-61
2022/04/03 03:41:43;;;;;;;4.82;2.42;;;1.20;99.90;;;;;;5094182;28;20070;-61
2022/04/03 03:44:10;;;;;;;;;;;1.20;99.90;;;;;;5093688;28;20040;-61
2022/04/03 03:46:37;;;;;;;4.07;2.60;;;1.00;99.90;;;;;;5094371;28;20283;-61
2022/04/03 03:49:03;;;;;;;4.78;2.70;;;;;;;;;;5094283;28;20047;-62
2022/04/03 03:51:29;;;;;;;5.22;2.80;;;1.30;99.90;;;;;;5094257;28;20048;-61
2022/04/03 03:53:55;;;;;;;4.37;2.13;;;;;;;;;;5094142;28;20098;-62
2022/04/03 03:56:21;;;;;;;4.60;2.20;;;;;;;;;;5094173;28;20278;-61
2022/04/03 03:58:47;;;;;;;3.80;2.25;;;1.20;99.90;;;;;;5093755;28;20546;-61
2022/04/03 04:01:13;;;;;;;5.27;2.30;;;;;;;;;;5094001;28;20052;-61
2022/04/03 04:03:39;;;;;;;3.75;2.30;;;;;;;;;;5094105;28;20313;-62
2022/04/03 04:06:05;;;;;;;4.35;2.08;;;;;;;;;;5094044;28;20126;-64
2022/04/03 04:08:31;;;;;;;10.00;2.08;;;;;;;;;;5093832;28;20078;-61
2022/04/03 04:10:58;;;;;;;5.30;1.92;;;;;;;;;;5093850;28;20104;-61
2022/04/03 04:13:24;;;;;;;7.75;1.80;;;;;;;;;;5093781;28;20060;-62
2022/04/03 04:15:50;;;;;;;;;;;1.40;99.90;;;;;;5094099;28;20131;-61
2022/04/03 04:18:16;;;;;;;5.57;1.83;;;1.40;99.90;;;;;;5092667;28;20019;-61
2022/04/03 04:20:42;;;;;;;3.30;1.40;;;1.60;99.90;;;;;;5093661;28;20089;-61
2022/04/03 04:23:09;;;;;;;;;;;1.60;99.90;;;;;;5094094;28;20035;-62
2022/04/03 04:25:35;;;;;;;6.55;1.40;;;;;;;;;;5093653;28;19920;-61
2022/04/03 04:28:01;;;;;;;3.45;1.10;;;1.90;99.90;;;;;;5093644;28;20071;-61
2022/04/03 04:30:27;;;;;;;9.75;1.55;;;1.90;99.90;;;;;;5093117;28;20476;-61
2022/04/03 04:32:53;;;;;;;6.03;1.40;;;;;;;;;;5093528;28;20052;-61
2022/04/03 04:35:19;;;;;;;9.10;1.27;;;;;;;;;;5093389;28;20044;-64
2022/04/03 04:37:45;;;;;;;5.68;1.30;;;;;;;;;;5093379;28;20131;-62
2022/04/03 04:40:12;;;;;;;10.48;1.55;;;2.40;99.90;;;;;;5093343;28;20415;-61
2022/04/03 04:42:39;;;;;;;4.43;1.35;;;2.40;99.90;;;;;;5092843;28;20827;-61
2022/04/03 04:45:07;;;;;;;5.68;1.42;;;;;;;;;;5093331;28;20075;-61
2022/04/03 04:47:38;;;;;;;6.32;1.20;;;2.70;99.90;;;;;;5093206;28;20055;-61
2022/04/03 04:50:08;;;;;;;5.80;1.40;;;2.70;99.90;;;;;;5093161;28;20040;-62
2022/04/03 04:52:35;;;;;;;8.35;1.70;;;2.70;99.90;;;;;;5093129;28;20135;-61
2022/04/03 04:55:02;;;;;;;3.47;1.42;;;;;;;;;;5092772;28;20058;-61
2022/04/03 04:57:28;;;;;;;9.48;1.40;;;2.70;99.90;;;;;;5093003;28;20494;-61
2022/04/03 04:59:53;;;;;;;4.30;1.40;;;2.80;99.90;;;;;;5093043;28;20133;-61
2022/04/03 05:02:19;;;;;;;2.70;1.20;;;;;;;;;;5092982;28;20285;-62
2022/04/03 05:04:45;;;;;;;7.95;1.38;;;;;;;;;;5092675;28;20480;-61
2022/04/03 05:07:12;;;;;;;6.53;1.40;;;2.70;99.90;;;;;;5091906;28;20131;-61
2022/04/03 05:09:38;;;;;;;2.83;1.15;;;2.50;99.90;;;;;;5093178;28;20093;-61
2022/04/03 05:12:04;;;;;;;5.43;2.08;;;;;;;;;;5093143;28;20048;-64
2022/04/03 05:14:30;;;;;;;3.70;1.40;;;2.70;99.90;;;;;;5092472;28;20083;-61
2022/04/03 05:16:56;;;;;;;3.70;2.05;;;2.70;99.90;;;;;;5092850;28;20087;-61
2022/04/03 05:19:24;;;;;;;4.93;1.00;;;;;;;;;;5093060;28;20098;-60
2022/04/03 05:21:50;;;;;;;3.78;1.23;;;3.10;99.90;;;;;;5092681;28;20373;-61
2022/04/03 05:24:16;;;;;;;6.32;1.15;;;3.10;99.90;;;;;;5092764;28;20076;-61
2022/04/03 05:26:42;;;;;;;4.07;1.20;;;3.30;99.90;;;;;;5092751;28;20093;-61
2022/04/03 05:29:08;;;;;;;2.25;1.10;;;3.10;99.90;;;;;;5091458;28;20044;-61
2022/04/03 05:31:34;;;;;;;3.15;1.20;;;;;;;;;;5092580;28;20082;-61
2022/04/03 05:34:00;;;;;;;2.33;1.13;;;3.40;99.90;;;;;;5092660;28;20471;-61
2022/04/03 05:36:26;;;;;;;6.50;1.58;;;;;;;;;;5092594;28;20084;-61
2022/04/03 05:38:51;;;;;;;3.92;1.23;;;3.30;99.90;;;;;;5091353;28;20051;-61
2022/04/03 05:41:17;;;;;;;3.38;1.50;;;3.40;99.90;;;;;;5092430;28;20492;-61
2022/04/03 05:43:43;;;;;;;4.53;1.60;;;3.60;99.90;;;;;;5091460;28;20052;-61
2022/04/03 05:46:10;;;;;;;2.92;1.40;;;3.40;99.90;;;;;;5092647;28;20275;-61
2022/04/03 05:48:36;;;;;;;6.50;1.55;;;3.80;99.90;;;;;;5092551;28;20094;-62
2022/04/03 05:51:02;;;;;;;4.20;1.40;;;3.70;99.90;;;;;;5092473;28;20040;-61
2022/04/03 05:53:28;;;;;;;4.35;1.40;;;3.80;99.90;;;;;;5092531;28;20051;-61
2022/04/03 05:55:54;;;;;;;11.85;2.10;;;;;;;;;;5092461;28;20052;-62
2022/04/03 05:58:20;;;;;;;4.03;1.60;;;3.90;99.90;;;;;;5092443;28;20127;-62
2022/04/03 06:00:46;;;;;;;4.90;1.23;;;3.90;99.90;;;;;;5092485;28;20528;-62
2022/04/03 06:03:11;;;;;;;2.40;1.50;;;3.90;99.90;;;;;;5091361;28;20388;-61
2022/04/03 06:05:38;;;;;;;5.30;1.60;;;4.00;99.90;;;;;;5092368;28;20044;-61
2022/04/03 06:08:04;;;;;;;;;;;4.30;99.90;;;;;;5095348;28;20059;-61
2022/04/03 06:10:31;;;;;;;4.40;1.20;;;4.00;99.90;;;;;;5096354;28;19924;-62
2022/04/03 06:13:06;;;;;;;2.85;1.05;;;4.00;99.90;;;;;;5096245;28;20392;-62
2022/04/03 06:15:34;;;;;;;9.07;4.18;;;;;;;;;;5096077;28;20118;-61
2022/04/03 06:18:04;;;;;;;4.22;1.60;;;;;;;;;;5096122;28;20095;-61
2022/04/03 06:20:30;;;;;;;3.05;2.00;;;4.30;99.90;;;;;;5096106;28;20063;-62
2022/04/03 06:22:56;;;;;;;;;;;4.30;99.90;;;;;;5096518;28;20458;-61
2022/04/03 06:25:22;;;;;;;4.00;1.83;;;4.50;99.90;;;;;;5095953;28;19946;-62
2022/04/03 06:27:48;;;;;;;5.93;1.45;;;4.50;99.90;;;;;;5095859;28;20051;-62
2022/04/03 06:30:14;;;;;;;5.80;1.35;;;4.60;99.90;;;;;;5095860;28;20369;-61
2022/04/03 06:32:40;;;;;;;4.35;1.30;;;4.40;99.90;;;;;;5095783;28;20044;-63
2022/04/03 06:35:08;;;;;;;5.72;1.67;;;4.30;99.90;;;;;;5095537;28;20122;-63
2022/04/03 06:37:34;;;;;;;6.18;1.70;;;4.40;99.90;;;;;;5095657;28;20044;-61
2022/04/03 06:40:00;;;;;;;;;;;4.20;99.90;;;;;;5096068;28;20056;-62
2022/04/03 06:42:29;;;;;;;8.98;1.73;;;4.30;99.90;;;;;;5128345;27;19920;-62
2022/04/03 06:44:54;;;;;;;6.65;1.60;;;4.50;99.90;;;;;;5086104;28;20051;-62
2022/04/03 06:47:20;;;;;;;4.00;1.60;;;4.50;99.90;;;;;;5094180;28;20052;-63
2022/04/03 06:49:46;;;;;;;8.80;1.20;;;4.30;99.90;;;;;;5094541;28;20075;-62
2022/04/03 06:52:12;;;;;;;5.53;2.10;;;4.50;99.90;;;;;;5094330;28;20075;-61
2022/04/03 06:54:37;;;;;;;4.07;1.92;;;4.50;99.90;;;;;;5093987;28;20325;-61
2022/04/03 06:57:04;;;;;;;5.18;2.00;;;4.30;99.90;;;;;;5094416;28;20097;-61
2022/04/03 06:59:29;;;;;;;3.28;1.40;;;4.20;99.90;;;;;;5094602;28;20052;-61
2022/04/03 07:01:55;;;;;;;3.85;1.40;;;4.40;99.90;;;;;;5094333;28;20048;-63
2022/04/03 07:04:21;;;;;;;3.67;1.30;;;4.30;99.90;;;;;;5093368;28;20055;-62
2022/04/03 07:06:47;;;;;;;3.75;1.40;;;;;;;;;;5094089;28;20044;-62
2022/04/03 07:09:13;;;;;;;3.28;1.50;;;4.10;99.90;;;;;;5093952;28;20048;-61
2022/04/03 07:11:39;;;;;;;5.00;1.33;;;4.50;99.90;;;;;;5093907;28;20047;-61
2022/04/03 07:14:04;;;;;;;5.72;1.48;;;4.50;99.90;;;;;;5093159;28;20043;-61
2022/04/03 07:16:30;;;;;;;4.38;1.52;;;4.70;99.90;;;;;;5092887;28;20067;-62
2022/04/03 07:18:56;;;;;;;4.53;1.30;;;4.80;99.90;;;;;;5093782;28;20043;-62
2022/04/03 07:21:23;;;;;;;1.95;1.35;;;4.90;99.90;;;;;;5093866;28;20051;-62
2022/04/03 07:23:48;;;;;;;;;;;5.00;99.90;;;;;;5093856;28;20044;-62
2022/04/03 07:26:14;;;;;;;5.25;1.40;;;5.20;99.90;;;;;;5093724;28;19927;-61
2022/04/03 07:28:40;;;;;;;4.90;1.95;;;5.60;99.90;;;;;;5093771;28;20465;-62
2022/04/03 07:31:06;;;;;;;4.38;1.42;;;5.50;99.90;;;;;;5093920;28;20048;-62
2022/04/03 07:33:32;;;;;;;5.10;1.30;;;5.30;99.90;;;;;;5092836;28;20036;-61
2022/04/03 07:35:58;;;;;;;5.55;1.60;;;5.70;99.90;;;;;;5093537;28;20050;-62
2022/04/03 07:38:23;;;;;;;7.28;1.02;;;5.60;99.90;;;;;;5093485;28;20495;-61
2022/04/03 07:40:49;;;;;;;6.43;1.10;;;5.90;99.90;;;;;;5093253;28;20048;-61
2022/04/03 07:43:16;;;;;;;14.30;1.70;;;6.00;99.90;;;;;;5091350;28;20286;-62
2022/04/03 07:45:43;;;;;;;6.78;1.23;;;6.10;99.90;;;;;;5092093;28;20089;-61
2022/04/03 07:48:09;;;;;;;2.92;1.10;;;4.40;99.90;;;;;;5095043;28;20044;-62
2022/04/03 07:50:35;;;;;;;3.90;1.10;;;6.20;99.90;;;;;;5092919;28;20040;-62
2022/04/03 07:53:01;;;;;;;3.85;1.27;;;6.10;99.90;;;;;;5092938;28;20048;-62
2022/04/03 07:55:26;;;;;;;4.97;1.20;;;6.20;99.90;;;;;;5091904;28;20484;-62
2022/04/03 07:57:52;;;;;;;4.72;1.45;;;6.60;99.90;;;;;;5092921;28;20040;-61
2022/04/03 08:00:18;;;;;;;4.10;1.02;;;6.10;99.90;;;;;;5092975;28;20106;-61
2022/04/03 08:02:43;;;;;;;8.00;1.08;;;5.90;99.90;;;;;;5092296;28;20128;-62
2022/04/03 08:05:10;;;;;;;4.60;1.00;;;6.40;99.90;;;;;;5091769;28;20469;-62
2022/04/03 08:07:37;;;;;;;3.03;1.10;;;6.40;99.90;;;;;;5091351;28;20043;-63
2022/04/03 08:10:05;;;;;;;5.57;1.13;;;6.40;99.90;;;;;;5092787;28;20102;-61
2022/04/03 08:12:32;;;;;;;4.78;1.10;;;6.60;99.90;;;;;;5092710;28;20537;-64
2022/04/03 08:14:57;;;;;;;4.63;1.30;;;6.60;99.90;;;;;;5072588;28;20044;-62
2022/04/03 08:17:23;;;;;;;5.35;1.23;;;6.70;99.90;;;;;;5092627;28;20044;-62
2022/04/03 08:19:49;;;;;;;3.35;1.20;;;6.50;99.90;;;;;;5092750;28;20067;-60
2022/04/03 08:22:14;;;;;;;2.92;1.40;;;6.70;99.90;;;;;;5091756;28;20050;-61
2022/04/03 08:24:40;;;;;;;6.78;1.10;;;6.30;99.90;;;;;;5092000;28;20044;-60
2022/04/03 08:27:07;;;;;;;2.75;1.10;;;6.80;99.90;;;;;;5092239;28;20815;-61
2022/04/03 08:29:33;;;;;;;5.70;1.13;;;6.50;99.90;;;;;;5091970;28;20066;-61
2022/04/03 08:31:59;;;;;;;6.50;1.25;;;6.40;99.90;;;;;;5092292;28;20044;-60
2022/04/03 08:34:24;;;;;;;1.67;0.93;;;6.50;99.90;;;;;;5089791;28;20044;-61
2022/04/03 08:36:51;;;;;;;3.38;1.10;;;6.60;99.90;;;;;;5091053;28;20131;-60
2022/04/03 08:39:16;;;;;;;;;;;6.40;99.90;;;;;;5074703;28;20054;-62
2022/04/03 08:41:42;;;;;;;3.58;0.95;;;7.30;99.90;;;;;;5092793;28;20305;-61
2022/04/03 08:44:08;;;;;;;1.35;1.00;;;6.60;99.90;;;;;;5091931;28;20048;-63
2022/04/03 08:46:38;;;;;;;2.90;1.10;;;6.70;99.90;;;;;;5093368;28;20100;-60
2022/04/03 08:49:06;;;;;;;1.55;1.05;;;6.50;99.90;;;;;;5093225;28;20044;-60
2022/04/03 08:51:36;;;;;;;5.65;1.15;;;6.70;99.90;;;;;;5092246;28;20142;-62
2022/04/03 08:54:02;;;;;;;1.42;1.00;;;5.10;99.90;;;;;;5091963;28;20063;-60
2022/04/03 08:56:29;;;;;;;4.78;1.17;;;7.40;99.90;;;;;;5092852;28;20499;-61
2022/04/03 08:58:55;;;;;;;5.55;1.50;;;6.50;99.90;;;;;;5092889;28;20044;-60
2022/04/03 09:01:20;;;;;;;4.30;1.10;;;6.50;99.90;;;;;;5093084;28;20070;-60
2022/04/03 09:03:47;;;;;;;6.22;2.60;;;6.70;99.90;;;;;;5092986;28;20102;-60
2022/04/03 09:06:13;;;;;;;2.50;1.00;;;6.60;99.90;;;;;;5092758;28;20048;-61
2022/04/03 09:08:39;;;;;;;3.97;1.55;;;6.70;99.90;;;;;;5092664;28;20056;-60
2022/04/03 09:11:05;;;;;;;4.80;1.35;;;6.80;99.90;;;;;;5092332;28;20369;-61
2022/04/03 09:13:31;;;;;;;4.20;1.27;;;6.70;99.90;;;;;;5092265;28;20094;-60
2022/04/03 09:15:57;;;;;;;3.85;1.25;;;7.10;99.90;;;;;;5092112;28;20036;-61
2022/04/03 09:18:23;;;;;;;2.85;1.08;;;7.80;99.90;;;;;;5092349;28;20066;-61
2022/04/03 09:20:48;;;;;;;5.57;1.20;;;7.90;99.90;;;;;;5092098;28;20044;-61
2022/04/03 09:23:17;;;;;;;4.28;1.15;;;6.70;99.90;;;;;;5092071;28;20044;-61
2022/04/03 09:25:44;;;;;;;3.00;1.15;;;6.80;99.90;;;;;;5091073;28;20047;-61
2022/04/03 09:28:14;;;;;;;4.65;1.17;;;6.90;99.90;;;;;;5092091;28;20075;-60
2022/04/03 09:30:47;;;;;;;3.55;1.30;;;6.80;99.90;;;;;;5089071;28;20492;-60
2022/04/03 09:33:20;;;;;;;6.30;1.08;;;7.50;99.90;;;;;;5092060;28;20043;-61
2022/04/03 09:36:03;;;;;;;2.15;1.10;;;7.00;99.90;;;;;;5090426;28;20044;-60
2022/04/03 09:38:31;;;;;;;3.33;0.98;;;7.20;99.90;;;;;;5090712;28;20051;-60
2022/04/03 09:40:59;;;;;;;4.45;1.05;;;8.00;99.90;;;;;;5092120;28;20119;-60
2022/04/03 09:43:27;;;;;;;3.50;1.23;;;8.80;99.90;;;;;;5095655;28;20052;-60
2022/04/03 09:45:55;;;;;;;4.93;1.02;;;7.70;99.90;;;;;;5096452;28;20055;-61
2022/04/03 09:48:22;;;;;;;5.50;1.48;;;8.30;99.90;;;;;;5095618;28;20059;-64
2022/04/03 09:51:04;;;;;;;6.25;1.00;;;8.20;99.90;;;;;;5095633;28;20055;-60
2022/04/03 09:53:48;;;;;;;4.13;1.30;;;7.80;99.90;;;;;;5096554;28;20097;-60
2022/04/03 09:56:27;;;;;;;2.65;1.15;;;7.70;99.90;;;;;;5096510;28;20051;-60
2022/04/03 09:58:53;;;;;;;3.92;1.48;;;7.80;99.90;;;;;;5096344;28;20060;-61
2022/04/03 10:01:34;;;;;;;2.65;1.00;;;7.90;99.90;;;;;;5096337;28;20058;-60
2022/04/03 10:04:01;;;;;;;5.63;1.20;;;7.10;99.90;;;;;;5096285;28;20055;-60
2022/04/03 10:06:27;;;;;;;4.72;1.20;;;8.70;99.90;;;;;;5096353;28;20048;-60
2022/04/03 10:08:53;;;;;;;3.55;1.00;;;7.00;99.90;;;;;;5096098;28;20226;-60
2022/04/03 10:11:20;;;;;;;3.50;1.08;;;7.40;99.90;;;;;;5096273;28;20440;-60
2022/04/03 10:13:46;;;;;;;5.82;1.13;;;8.00;99.90;;;;;;5094666;28;20048;-59
2022/04/03 10:16:12;;;;;;;;;;;8.50;99.90;;;;;;5095023;28;20480;-60
2022/04/03 10:18:40;;;;;;;4.85;1.50;;;7.20;99.90;;;;;;5096125;28;19931;-61
2022/04/03 10:21:14;;;;;;;1.73;0.90;;;8.10;99.90;;;;;;5095845;28;20048;-60
2022/04/03 10:23:41;;;;;;;6.90;1.40;;;7.00;99.90;;;;;;5096084;28;20040;-60
2022/04/03 10:26:09;;;;;;;1.67;0.90;;;7.10;99.90;;;;;;5095842;28;20044;-60
2022/04/03 10:28:37;;;;;;;5.65;1.10;;;7.40;99.90;;;;;;5095728;28;20048;-60
2022/04/03 10:31:08;;;;;;;4.05;1.40;;;7.90;99.90;;;;;;5095132;28;20590;-60
2022/04/03 10:33:39;;;;;;;6.45;1.35;;;7.70;99.90;;;;;;5095737;28;20087;-60
2022/04/03 10:36:10;;;;;;;2.53;0.95;;;7.70;99.90;;;;;;5095543;28;20133;-60
2022/04/03 10:38:35;;;;;;;4.82;1.15;;;7.30;99.90;;;;;;5094565;28;20425;-60
2022/04/03 10:41:01;;;;;;;5.88;1.30;;;7.50;99.90;;;;;;5095525;28;20055;-60
2022/04/03 10:43:31;;;;;;;3.42;1.10;;;7.50;99.90;;;;;;5095492;28;20056;-60
2022/04/03 10:45:57;;;;;;;7.47;1.30;;;8.10;99.90;;;;;;5096294;28;20028;-63
2022/04/03 10:48:26;;;;;;;3.22;1.50;;;8.60;99.90;;;;;;5095247;28;20044;-62
2022/04/03 10:50:58;;;;;;;1.63;0.93;;;7.50;99.90;;;;;;5093729;28;20063;-60
2022/04/03 10:53:31;;;;;;;7.22;1.40;;;7.90;99.90;;;;;;5094624;28;20044;-61
2022/04/03 10:55:58;;;;;;;6.32;1.10;;;8.50;99.90;;;;;;5094971;28;20210;-61
2022/04/03 10:58:36;;;;;;;1.52;1.00;;;8.40;99.90;;;;;;5095128;28;20126;-61
2022/04/03 11:01:03;;;;;;;5.40;1.20;;;9.10;99.90;;;;;;5094079;28;20051;-61
2022/04/03 11:03:30;;;;;;;3.83;1.00;;;8.10;99.90;;;;;;5094840;28;20130;-61
2022/04/03 11:05:56;;;;;;;3.78;1.02;;;8.00;99.90;;;;;;5095009;28;20052;-61
2022/04/03 11:08:42;;;;;;;5.55;1.05;;;7.80;99.90;;;;;;5094658;28;20063;-60
2022/04/03 11:11:09;;;;;;;5.43;1.50;;;8.00;99.90;;;;;;5094931;28;20110;-61
2022/04/03 11:13:34;;;;;;;5.20;1.08;;;7.20;99.90;;;;;;5093555;28;20048;-61
2022/04/03 11:16:00;;;;;;;9.57;1.20;;;7.30;99.90;;;;;;5093595;28;20050;-60
2022/04/03 11:18:35;;;;;;;5.72;1.30;;;7.40;99.90;;;;;;5094977;28;20048;-59
2022/04/03 11:21:21;;;;;;;3.28;0.98;;;7.40;99.90;;;;;;5094783;28;20055;-59
2022/04/03 11:23:52;;;;;;;10.90;1.70;;;7.40;99.90;;;;;;5093513;28;20074;-60
2022/04/03 11:26:19;;;;;;;5.15;1.02;;;7.40;99.90;;;;;;5097953;28;20160;-64
2022/04/03 11:28:46;;;;;;;6.68;1.30;;;8.10;99.90;;;;;;5085998;28;20044;-61
2022/04/03 11:31:12;;;;;;;5.28;1.20;;;9.30;99.90;;;;;;5093609;28;20521;-60
2022/04/03 11:33:38;;;;;;;;;;;8.40;99.90;;;;;;5108052;28;20075;-60
2022/04/03 11:36:06;;;;;;;6.57;1.08;;;8.40;99.90;;;;;;5114367;28;19989;-60
2022/04/03 11:38:41;;;;;;;5.88;1.38;;;8.20;99.90;;;;;;5113998;28;20047;-60
2022/04/03 11:41:16;;;;;;;3.72;1.10;;;8.10;99.90;;;;;;5113649;28;20051;-60
2022/04/03 11:43:54;;;;;;;2.65;0.93;;;8.80;99.90;;;;;;5091108;28;20060;-61
2022/04/03 11:46:22;;;;;;;4.78;1.17;;;9.00;99.90;;;;;;5093997;28;20044;-60
2022/04/03 11:48:47;;;;;;;4.82;1.20;;;10.30;99.90;;;;;;5093236;28;20040;-60
2022/04/03 11:51:17;;;;;;;2.78;0.98;;;8.80;99.90;;;;;;5094225;28;20059;-59
2022/04/03 11:53:44;;;;;;;2.95;1.30;;;8.70;99.90;;;;;;5076354;28;20051;-60
2022/04/03 11:56:16;;;;;;;4.07;1.13;;;10.00;99.90;;;;;;5092855;28;20055;-60
2022/04/03 11:58:50;;;;;;;1.38;0.85;;;9.00;99.90;;;;;;5093999;28;20090;-60
2022/04/03 12:01:36;;;;;;;5.63;1.10;;;9.10;99.90;;;;;;5092819;28;20055;-60
2022/04/03 12:04:08;;;;;;;1.88;0.90;;;8.90;99.90;;;;;;5093714;28;20495;-60
2022/04/03 12:06:46;;;;;;;1.27;0.90;;;8.70;99.90;;;;;;5093299;28;20075;-60
2022/04/03 12:09:14;;;;;;;0.85;0.68;;;8.70;99.90;;;;;;5094088;28;20044;-60
2022/04/03 12:11:47;;;;;;;3.03;0.90;;;9.80;99.90;;;;;;5093905;28;20055;-60
2022/04/03 12:14:25;;;;;;;3.72;1.00;;;9.40;99.90;;;;;;5092814;28;20471;-59
2022/04/03 12:17:00;;;;;;;5.50;1.45;;;8.90;99.90;;;;;;5094028;28;20093;-60
2022/04/03 12:19:27;;;;;;;1.23;0.90;;;9.30;99.90;;;;;;5093923;28;20043;-60
2022/04/03 12:21:56;;;;;;;3.03;1.00;;;9.80;99.90;;;;;;5093713;28;20048;-59
2022/04/03 12:24:24;;;;;;;2.58;1.05;;;9.30;99.90;;;;;;5093398;28;20040;-60
2022/04/03 12:27:06;;;;;;;2.53;1.15;;;9.30;99.90;;;;;;5094025;28;20574;-60
2022/04/03 12:29:37;;;;;;;2.95;0.98;;;10.20;99.90;;;;;;5093635;28;20400;-60
2022/04/03 12:32:05;;;;;;;3.08;1.20;;;9.50;99.90;;;;;;5093707;28;20048;-60
2022/04/03 12:34:33;;;;;;;1.40;1.08;;;9.40;99.90;;;;;;5093202;28;20559;-60
2022/04/03 12:37:01;;;;;;;7.28;1.63;;;10.00;99.90;;;;;;5093832;28;20132;-59
2022/04/03 12:39:36;;;;;;;6.85;1.00;;;9.30;99.90;;;;;;5093433;28;20048;-60
2022/04/03 12:42:20;;;;;;;1.45;1.00;;;9.00;99.90;;;;;;5093309;28;20159;-60
2022/04/03 12:44:50;;;;;;;3.88;1.02;;;9.40;99.90;;;;;;5093412;28;20396;-60
2022/04/03 12:47:18;;;;;;;7.90;1.38;;;10.00;99.90;;;;;;5093305;28;20084;-60
2022/04/03 12:50:08;;;;;;;2.47;0.93;;;9.80;99.90;;;;;;5093257;28;20040;-59
2022/04/03 12:52:53;;;;;;;0.93;0.80;;;9.20;99.90;;;;;;5093385;28;20083;-60
2022/04/03 12:55:24;;;;;;;1.42;0.77;;;9.70;99.90;;;;;;5092053;28;20044;-59
2022/04/03 13:00:56;;;;;;;2.58;1.23;;;10.60;99.90;;;;;;5093196;28;20101;-61
2022/04/03 13:03:35;;;;;;;3.22;1.10;;;9.80;99.90;;;;;;5093079;28;20040;-60
2022/04/03 13:06:22;;;;;;;2.03;1.10;;;9.90;99.90;;;;;;5093099;28;20177;-60
2022/04/03 13:08:56;;;;;;;2.17;1.38;;;9.70;99.90;;;;;;5093101;28;20472;-60
2022/04/03 13:11:53;;;;;;;2.08;0.98;;;11.20;99.90;;;;;;5093027;28;20040;-60
2022/04/03 13:14:19;;;;;;;3.17;1.02;;;9.30;99.90;;;;;;5084278;28;20056;-60
2022/04/03 13:16:49;;;;;;;6.40;1.10;;;9.90;99.90;;;;;;5092678;28;20048;-59
2022/04/03 13:19:16;;;;;;;5.35;1.30;;;9.60;99.90;;;;;;5092923;28;20445;-62
2022/04/03 13:21:42;;;;;;;6.85;1.30;;;9.50;99.90;;;;;;5092804;28;20048;-60
2022/04/03 13:24:09;;;;;;;4.28;1.58;;;9.00;99.90;;;;;;5092828;28;20066;-59
2022/04/03 13:26:35;;;;;;;4.93;1.52;;;10.00;99.90;;;;;;5092771;28;20075;-61